Time;durP1;ratioP1;P1;durP2;ratioP2;P2;SDS_P1;SDS_P2;PMS_P1;PMS_P2;Temp;Humidity;BMP_temperature;BMP_pressure;BME280_temperature;BME280_humidity;BME280_pressure;Samples;Min_cycle;Max_cycle;Signal;HPM_P1;HPM_P2
2021/10/24 00:03:49;;;;;;;;;;;;;;;13.74;53.89;102680.81;4986764;28;98744;-82
2021/10/24 00:06:18;;;;;;;;;;;;;;;13.57;54.57;102691.75;4991857;28;98010;-81
2021/10/24 00:08:44;;;;;;;;;;;;;;;13.26;55.24;102688.72;4977183;28;96470;-81
2021/10/24 00:11:13;;;;;;;;;;;;;;;13.59;54.38;102681.97;4978772;28;96660;-82
2021/10/24 00:13:41;;;;;;;;;;;;;;;13.46;54.63;102685.72;5119787;22;97878;-80
2021/10/24 00:16:08;;;;;;;;;;;;;;;13.35;54.99;102685.03;5055689;28;101407;-82
2021/10/24 00:18:35;;;;;;;;;;;;;;;13.59;54.27;102679.31;5058691;27;96729;-81
2021/10/24 00:23:46;;;;;;;;;;;;;;;13.13;55.95;102681.84;5053713;27;96981;-81
2021/10/24 00:26:13;;;;;;;;;;;;;;;13.45;54.80;102682.22;5025841;28;98416;-81
2021/10/24 00:28:43;;;;;;;;;;;;;;;13.64;54.32;102684.56;5042680;27;96284;-81
2021/10/24 00:31:17;;;;;;;;;;;;;;;13.53;54.73;102684.72;5046566;27;97184;-82
2021/10/24 00:34:05;;;;;;;;;;;;;;;13.35;55.56;102682.38;5049132;27;97968;-79
2021/10/24 00:36:31;;;;;;;;;;;;;;;13.42;55.72;102695.53;5036067;27;97665;-79
2021/10/24 00:38:58;;;;;;;;;;;;;;;13.31;55.38;102686.00;5044601;27;97476;-77
2021/10/24 00:41:24;;;;;;;;;;;;;;;13.25;55.57;102688.75;5034424;27;97036;-79
2021/10/24 00:43:52;;;;;;;;;;;;;;;13.44;55.44;102684.91;5038815;27;100262;-79
2021/10/24 00:46:19;;;;;;;;;;;;;;;13.22;56.11;102683.47;5034710;27;98493;-80
2021/10/24 00:48:47;;;;;;;;;;;;;;;12.80;57.64;102688.47;5038075;27;97664;-80
2021/10/24 00:51:15;;;;;;;;;;;;;;;13.08;56.49;102691.63;5039121;28;96779;-78
2021/10/24 00:53:42;;;;;;;;;;;;;;;13.01;57.12;102687.31;5036861;27;100012;-79
2021/10/24 00:56:09;;;;;;;;;;;;;;;13.13;56.65;102687.13;5036559;28;98847;-78
2021/10/24 00:58:35;;;;;;;;;;;;;;;13.21;56.48;102681.72;5042534;27;97162;-79
2021/10/24 01:01:04;;;;;;;;;;;;;;;13.23;55.91;102686.13;5046271;28;96676;-79
2021/10/24 01:03:30;;;;;;;;;;;;;;;13.03;56.66;102672.25;5049303;27;97882;-79
2021/10/24 01:05:59;;;;;;;;;;;;;;;13.19;55.74;102681.78;5051323;27;98618;-80
2021/10/24 01:08:25;;;;;;;;;;;;;;;13.06;56.32;102678.38;5056926;27;96672;-79
2021/10/24 01:10:52;;;;;;;;;;;;;;;12.86;56.68;102672.50;5051335;27;96658;-79
2021/10/24 01:13:18;;;;;;;;;;;;;;;13.10;56.66;102671.25;5034082;27;100296;-79
2021/10/24 01:15:46;;;;;;;;;;;;;;;12.98;56.85;102677.63;5032612;27;101260;-79
2021/10/24 01:18:14;;;;;;;;;;;;;;;12.73;57.82;102670.94;5033014;27;97547;-79
2021/10/24 01:20:40;;;;;;;;;;;;;;;12.73;57.82;102671.78;5032177;27;96868;-79
2021/10/24 01:23:09;;;;;;;;;;;;;;;12.77;57.77;102667.31;5031643;27;97810;-78
2021/10/24 01:25:35;;;;;;;;;;;;;;;12.79;57.53;102668.19;5022218;28;99536;-79
2021/10/24 01:28:02;;;;;;;;;;;;;;;12.57;57.66;102675.53;5038305;27;97319;-79
2021/10/24 01:30:31;;;;;;;;;;;;;;;12.57;58.11;102669.38;5037558;27;96906;-79
2021/10/24 01:32:57;;;;;;;;;;;;;;;12.83;56.73;102669.88;5038966;28;97913;-80
2021/10/24 01:35:23;;;;;;;;;;;;;;;12.78;56.86;102663.78;5026763;28;97682;-80
2021/10/24 01:37:50;;;;;;;;;;;;;;;12.59;57.86;102662.28;5052441;27;97063;-79
2021/10/24 01:40:20;;;;;;;;;;;;;;;12.52;57.61;102671.22;5035483;27;97468;-79
2021/10/24 01:42:47;;;;;;;;;;;;;;;12.35;58.37;102672.28;5033870;28;99119;-77
2021/10/24 01:45:14;;;;;;;;;;;;;;;12.12;58.84;102671.69;5034315;28;101138;-79
2021/10/24 01:47:40;;;;;;;;;;;;;;;12.03;59.09;102661.19;5036813;27;96736;-79
2021/10/24 01:50:07;;;;;;;;;;;;;;;11.83;60.64;102665.81;5030788;27;97344;-79
2021/10/24 01:52:39;;;;;;;;;;;;;;;11.91;60.00;102662.22;5037155;27;100516;-78
2021/10/24 01:55:07;;;;;;;;;;;;;;;12.37;58.19;102666.97;5037736;27;98804;-79
2021/10/24 01:57:35;;;;;;;;;;;;;;;12.02;58.41;102664.72;5036228;28;97230;-79
2021/10/24 02:00:01;;;;;;;;;;;;;;;12.19;58.13;102661.91;5037461;27;96836;-80
2021/10/24 02:02:27;;;;;;;;;;;;;;;12.46;58.09;102661.56;5020287;28;98321;-79
2021/10/24 02:04:54;;;;;;;;;;;;;;;12.50;58.10;102660.63;5034661;27;102035;-79
2021/10/24 02:07:21;;;;;;;;;;;;;;;12.78;57.13;102654.03;5034928;28;96816;-80
2021/10/24 02:09:47;;;;;;;;;;;;;;;12.94;56.54;102659.97;5039448;27;97303;-79
2021/10/24 02:12:13;;;;;;;;;;;;;;;12.50;57.23;102651.78;5023427;28;100310;-79
2021/10/24 02:14:42;;;;;;;;;;;;;;;12.81;56.78;102658.41;5039371;28;98098;-78
2021/10/24 02:17:08;;;;;;;;;;;;;;;12.51;57.29;102653.53;5020203;28;96944;-79
2021/10/24 02:19:35;;;;;;;;;;;;;;;12.18;57.67;102666.31;5048616;27;98084;-79
2021/10/24 02:22:03;;;;;;;;;;;;;;;11.96;58.17;102665.69;5048645;28;99270;-79
2021/10/24 02:24:29;;;;;;;;;;;;;;;12.32;57.23;102661.72;5043074;28;96853;-79
2021/10/24 02:26:55;;;;;;;;;;;;;;;12.46;57.05;102658.03;5037963;27;96771;-78
2021/10/24 02:29:22;;;;;;;;;;;;;;;12.80;55.96;102650.50;5041363;27;97222;-79
2021/10/24 02:31:50;;;;;;;;;;;;;;;12.87;56.31;102653.00;5038501;27;99240;-79
2021/10/24 02:34:16;;;;;;;;;;;;;;;13.06;55.18;102654.47;5031762;27;100499;-79
2021/10/24 02:36:42;;;;;;;;;;;;;;;12.84;55.44;102647.75;5024763;28;96945;-79
2021/10/24 02:39:09;;;;;;;;;;;;;;;12.98;55.13;102653.75;5019842;28;96862;-79
2021/10/24 02:41:35;;;;;;;;;;;;;;;12.90;55.56;102645.00;5029777;27;98258;-80
2021/10/24 02:44:02;;;;;;;;;;;;;;;12.83;55.33;102640.69;5034477;27;98865;-80
2021/10/24 02:46:28;;;;;;;;;;;;;;;13.06;54.92;102648.31;5030931;28;96854;-79
2021/10/24 02:48:56;;;;;;;;;;;;;;;13.15;54.45;102650.84;5033085;27;96867;-78
2021/10/24 02:51:22;;;;;;;;;;;;;;;12.59;55.34;102656.97;5035756;27;99446;-80
2021/10/24 02:53:49;;;;;;;;;;;;;;;12.66;56.06;102648.91;5030819;27;98732;-80
2021/10/24 02:56:15;;;;;;;;;;;;;;;12.95;54.87;102645.81;5031488;27;96888;-79
2021/10/24 02:58:42;;;;;;;;;;;;;;;12.88;55.03;102646.81;5035372;27;97158;-80
2021/10/24 03:01:10;;;;;;;;;;;;;;;13.03;54.53;102661.63;5026012;27;101286;-81
2021/10/24 03:03:36;;;;;;;;;;;;;;;12.74;55.42;102652.31;5036285;27;97750;-78
2021/10/24 03:06:04;;;;;;;;;;;;;;;12.58;56.13;102650.78;5043168;28;96913;-78
2021/10/24 03:08:30;;;;;;;;;;;;;;;12.84;55.13;102655.72;5025083;28;97231;-79
2021/10/24 03:10:56;;;;;;;;;;;;;;;12.96;54.86;102659.97;5022001;27;96971;-79
2021/10/24 03:13:23;;;;;;;;;;;;;;;12.75;55.05;102651.41;5022725;28;97874;-78
2021/10/24 03:15:49;;;;;;;;;;;;;;;12.63;55.27;102663.97;5034829;28;96730;-78
2021/10/24 03:18:16;;;;;;;;;;;;;;;12.53;55.80;102665.88;5035698;28;96853;-79
2021/10/24 03:20:42;;;;;;;;;;;;;;;12.47;55.87;102667.75;5034568;28;97939;-79
2021/10/24 03:23:10;;;;;;;;;;;;;;;12.43;55.89;102668.66;5040928;28;99226;-79
2021/10/24 03:25:36;;;;;;;;;;;;;;;12.40;56.50;102666.94;5046615;27;96773;-77
2021/10/24 03:28:03;;;;;;;;;;;;;;;12.28;56.70;102675.91;5055375;28;96668;-78
2021/10/24 03:30:29;;;;;;;;;;;;;;;12.02;57.53;102677.97;5044961;28;96935;-77
2021/10/24 03:32:56;;;;;;;;;;;;;;;12.06;57.44;102676.19;5038735;27;99225;-79
2021/10/24 03:35:23;;;;;;;;;;;;;;;12.04;57.75;102678.84;5031302;28;97280;-80
2021/10/24 03:37:49;;;;;;;;;;;;;;;12.29;57.11;102680.31;5016608;28;96989;-79
2021/10/24 03:40:17;;;;;;;;;;;;;;;12.31;57.23;102683.84;5029103;28;99341;-79
2021/10/24 03:42:43;;;;;;;;;;;;;;;12.37;56.60;102681.09;5036260;28;97748;-79
2021/10/24 03:45:10;;;;;;;;;;;;;;;12.36;56.51;102682.00;5037295;28;96755;-79
2021/10/24 03:47:37;;;;;;;;;;;;;;;12.16;56.68;102684.00;5032733;27;97165;-79
2021/10/24 03:50:04;;;;;;;;;;;;;;;12.38;56.66;102690.81;5026644;27;99303;-77
2021/10/24 03:52:30;;;;;;;;;;;;;;;12.38;56.78;102684.63;5036435;28;99917;-79
2021/10/24 03:54:57;;;;;;;;;;;;;;;12.22;57.19;102680.41;5032788;27;97129;-79
2021/10/24 03:57:24;;;;;;;;;;;;;;;12.31;56.67;102688.25;5033618;28;97058;-80
2021/10/24 03:59:51;;;;;;;;;;;;;;;12.22;56.64;102685.69;5029380;28;100621;-79
2021/10/24 04:02:18;;;;;;;;;;;;;;;12.13;57.03;102689.34;5027677;28;99418;-79
2021/10/24 04:04:44;;;;;;;;;;;;;;;12.32;56.54;102690.91;5032667;27;96752;-79
2021/10/24 04:07:11;;;;;;;;;;;;;;;12.45;56.09;102688.09;5032298;27;98233;-79
2021/10/24 04:09:37;;;;;;;;;;;;;;;12.51;56.03;102690.66;5031796;27;99325;-77
2021/10/24 04:12:04;;;;;;;;;;;;;;;12.38;56.10;102695.25;5034788;27;101229;-78
2021/10/24 04:14:32;;;;;;;;;;;;;;;12.46;56.36;102695.16;5041852;27;96945;-79
2021/10/24 04:16:59;;;;;;;;;;;;;;;12.38;56.29;102695.25;5036019;28;98950;-79
2021/10/24 04:19:25;;;;;;;;;;;;;;;12.40;56.26;102700.53;5037563;28;101050;-78
2021/10/24 04:21:51;;;;;;;;;;;;;;;12.49;55.83;102698.63;5032277;27;98018;-79
2021/10/24 04:24:18;;;;;;;;;;;;;;;12.40;55.79;102698.75;5036543;27;96936;-80
2021/10/24 04:26:45;;;;;;;;;;;;;;;12.40;56.19;102692.59;5036621;27;97511;-79
2021/10/24 04:29:12;;;;;;;;;;;;;;;12.55;55.83;102697.66;5031625;27;100260;-79
2021/10/24 04:31:39;;;;;;;;;;;;;;;12.47;55.74;102700.41;5028058;27;100018;-80
2021/10/24 04:34:06;;;;;;;;;;;;;;;12.67;54.95;102695.72;5032328;28;97642;-78
2021/10/24 04:36:32;;;;;;;;;;;;;;;12.53;55.40;102695.06;5036578;27;97233;-79
2021/10/24 04:38:59;;;;;;;;;;;;;;;12.41;55.31;102699.59;5032771;27;99762;-79
2021/10/24 04:41:25;;;;;;;;;;;;;;;12.25;55.83;102691.88;5030235;27;101674;-79
2021/10/24 04:43:51;;;;;;;;;;;;;;;12.32;56.20;102690.91;5032658;27;96927;-79
2021/10/24 04:46:18;;;;;;;;;;;;;;;12.31;55.84;102689.13;5034270;27;96906;-79
2021/10/24 04:48:46;;;;;;;;;;;;;;;12.27;56.06;102692.69;5037398;27;100988;-79
2021/10/24 04:51:12;;;;;;;;;;;;;;;12.40;55.68;102695.22;5033699;27;99907;-79
2021/10/24 04:53:38;;;;;;;;;;;;;;;12.26;56.00;102690.09;5029802;27;98525;-79
2021/10/24 04:56:05;;;;;;;;;;;;;;;12.06;55.91;102692.97;5037941;27;96974;-79
2021/10/24 04:58:31;;;;;;;;;;;;;;;12.13;56.08;102701.72;5028650;27;98093;-78
2021/10/24 05:00:58;;;;;;;;;;;;;;;12.08;55.93;102695.59;5035435;27;102177;-79
2021/10/24 05:03:24;;;;;;;;;;;;;;;12.02;55.69;102701.81;5031780;27;96885;-77
2021/10/24 05:05:52;;;;;;;;;;;;;;;12.06;55.64;102692.97;5031082;28;98740;-80
2021/10/24 05:08:18;;;;;;;;;;;;;;;12.28;55.14;102698.88;5039772;27;99453;-80
2021/10/24 05:10:45;;;;;;;;;;;;;;;11.98;55.79;102700.09;5038267;27;101524;-79
2021/10/24 05:13:11;;;;;;;;;;;;;;;11.82;56.38;102698.50;5044615;27;97763;-79
2021/10/24 05:15:37;;;;;;;;;;;;;;;11.61;56.65;102698.69;5034115;28;96931;-79
2021/10/24 05:18:04;;;;;;;;;;;;;;;11.50;56.77;102701.41;5048043;28;99766;-78
2021/10/24 05:20:30;;;;;;;;;;;;;;;11.24;57.17;102698.09;5036649;27;100390;-79
2021/10/24 05:22:58;;;;;;;;;;;;;;;11.52;56.42;102703.16;5040397;28;97430;-78
2021/10/24 05:25:25;;;;;;;;;;;;;;;11.42;56.32;102703.25;5021822;28;97131;-80
2021/10/24 05:27:54;;;;;;;;;;;;;;;11.52;56.14;102704.94;5030582;28;98139;-80
2021/10/24 05:30:20;;;;;;;;;;;;;;;11.47;55.97;102706.75;5041069;27;100484;-79
2021/10/24 05:32:47;;;;;;;;;;;;;;;11.28;55.96;102706.00;5039032;27;98775;-79
2021/10/24 05:35:13;;;;;;;;;;;;;;;11.35;56.20;102704.19;5033604;27;98268;-80
2021/10/24 05:37:39;;;;;;;;;;;;;;;11.12;56.42;102704.34;5031245;27;97076;-79
2021/10/24 05:40:08;;;;;;;;;;;;;;;10.90;56.61;102708.88;5035622;27;101674;-79
2021/10/24 05:42:34;;;;;;;;;;;;;;;10.99;56.74;102705.31;5027879;28;97173;-78
2021/10/24 05:45:01;;;;;;;;;;;;;;;11.11;56.48;102702.59;5032211;27;98097;-78
2021/10/24 05:47:28;;;;;;;;;;;;;;;10.77;57.49;102704.56;5041557;27;98488;-79
2021/10/24 05:49:55;;;;;;;;;;;;;;;11.01;56.44;102706.19;5055392;27;97925;-79
2021/10/24 05:52:22;;;;;;;;;;;;;;;11.20;55.90;102702.53;5054416;27;97171;-80
2021/10/24 05:54:48;;;;;;;;;;;;;;;11.09;56.12;102701.75;5044043;28;96839;-78
2021/10/24 05:57:16;;;;;;;;;;;;;;;11.05;56.56;102707.91;5047873;28;100288;-78
2021/10/24 05:59:42;;;;;;;;;;;;;;;10.94;56.80;102699.19;5038174;27;100984;-78
2021/10/24 06:02:09;;;;;;;;;;;;;;;11.21;56.06;102700.78;5025534;28;96800;-79
2021/10/24 06:04:36;;;;;;;;;;;;;;;11.22;55.82;102699.88;5024206;28;96900;-80
2021/10/24 06:07:03;;;;;;;;;;;;;;;11.15;55.86;102704.34;5040484;28;98016;-80
2021/10/24 06:09:39;;;;;;;;;;;;;;;11.16;56.22;102701.66;5023682;28;99177;-79
2021/10/24 06:12:12;;;;;;;;;;;;;;;11.14;55.97;102705.22;5029154;28;98737;-79
2021/10/24 06:14:39;;;;;;;;;;;;;;;11.32;55.48;102713.03;5028027;28;96927;-79
2021/10/24 06:17:12;;;;;;;;;;;;;;;10.99;55.91;102703.56;5039524;28;98079;-80
2021/10/24 06:19:39;;;;;;;;;;;;;;;11.26;55.35;102713.06;5040097;28;99762;-79
2021/10/24 06:22:05;;;;;;;;;;;;;;;10.99;56.15;102705.31;5022050;28;97509;-80
2021/10/24 06:24:32;;;;;;;;;;;;;;;11.20;55.95;102713.13;5024633;28;97346;-79
2021/10/24 06:26:58;;;;;;;;;;;;;;;11.32;55.07;102707.72;5027563;28;97750;-79
2021/10/24 06:29:24;;;;;;;;;;;;;;;11.15;55.79;102707.00;5037482;28;99571;-78
2021/10/24 06:31:52;;;;;;;;;;;;;;;11.04;55.58;102711.44;5037139;28;96778;-79
2021/10/24 06:34:19;;;;;;;;;;;;;;;10.75;56.77;102720.44;5033694;27;96970;-80
2021/10/24 06:36:45;;;;;;;;;;;;;;;11.31;55.25;102719.19;5031669;27;99715;-80
2021/10/24 06:39:11;;;;;;;;;;;;;;;10.95;56.30;102722.09;5029867;27;98752;-78
2021/10/24 06:41:38;;;;;;;;;;;;;;;11.24;55.79;102722.78;5030595;27;98698;-79
2021/10/24 06:44:05;;;;;;;;;;;;;;;11.17;55.20;102727.22;5036562;27;96867;-81
2021/10/24 06:46:32;;;;;;;;;;;;;;;11.11;55.79;102727.28;5036734;27;100443;-79
2021/10/24 06:49:00;;;;;;;;;;;;;;;11.35;54.79;102731.53;5031642;28;100070;-80
2021/10/24 06:51:26;;;;;;;;;;;;;;;11.53;54.83;102727.88;5037938;27;97704;-78
2021/10/24 06:53:53;;;;;;;;;;;;;;;11.37;54.75;102721.81;5033449;28;96909;-79
2021/10/24 06:56:23;;;;;;;;;;;;;;;11.59;54.65;102723.41;5037419;27;101956;-79
2021/10/24 06:58:49;;;;;;;;;;;;;;;11.63;54.63;102732.19;5037095;28;97528;-78
2021/10/24 07:01:16;;;;;;;;;;;;;;;11.67;53.90;102726.00;5023752;28;98643;-78
2021/10/24 07:03:42;;;;;;;;;;;;;;;11.69;54.30;102728.59;5032659;27;97357;-78
2021/10/24 07:06:10;;;;;;;;;;;;;;;11.64;54.23;102725.13;5032588;27;98951;-79
2021/10/24 07:08:36;;;;;;;;;;;;;;;11.62;54.61;102727.78;5024984;28;97924;-79
2021/10/24 07:11:03;;;;;;;;;;;;;;;11.91;53.63;102730.22;5034695;27;97227;-79
2021/10/24 07:13:29;;;;;;;;;;;;;;;11.77;54.11;102724.16;5032330;27;97206;-78
2021/10/24 07:15:56;;;;;;;;;;;;;;;11.93;53.40;102721.34;5037033;27;102734;-79
2021/10/24 07:18:23;;;;;;;;;;;;;;;11.76;53.84;102727.69;5038576;27;100506;-79
2021/10/24 07:20:49;;;;;;;;;;;;;;;11.84;53.50;102731.16;5037438;28;96952;-79
2021/10/24 07:23:17;;;;;;;;;;;;;;;12.05;52.88;102722.13;5038527;27;96866;-79
2021/10/24 07:25:43;;;;;;;;;;;;;;;12.06;52.95;102722.13;5029364;27;100518;-79
2021/10/24 07:28:09;;;;;;;;;;;;;;;12.23;53.25;102730.75;5027676;27;99124;-80
2021/10/24 07:30:36;;;;;;;;;;;;;;;12.13;52.87;102721.16;5031733;27;96817;-79
2021/10/24 07:33:02;;;;;;;;;;;;;;;12.01;52.98;102728.34;5038217;27;97257;-80
2021/10/24 07:35:28;;;;;;;;;;;;;;;12.08;53.24;102730.06;5033334;28;99279;-79
2021/10/24 07:37:55;;;;;;;;;;;;;;;12.31;52.68;102723.59;5040019;28;100925;-80
2021/10/24 07:40:24;;;;;;;;;;;;;;;12.14;52.69;102730.00;5039897;28;96795;-80
2021/10/24 07:42:50;;;;;;;;;;;;;;;12.07;52.70;102736.25;5021905;27;96868;-80
2021/10/24 07:45:17;;;;;;;;;;;;;;;12.22;52.83;102729.00;5042596;27;100298;-79
2021/10/24 07:47:45;;;;;;;;;;;;;;;12.62;52.09;102729.41;5038305;27;100077;-78
2021/10/24 07:50:12;;;;;;;;;;;;;;;12.44;52.35;102728.75;5035554;28;97976;-79
2021/10/24 07:52:39;;;;;;;;;;;;;;;12.70;52.12;102734.63;5031360;28;96905;-78
2021/10/24 07:55:10;;;;;;;;;;;;;;;12.72;51.72;102727.53;5029074;27;98312;-79
2021/10/24 07:57:39;;;;;;;;;;;;;;;12.70;51.52;102727.53;5028360;28;103703;-80
2021/10/24 08:00:07;;;;;;;;;;;;;;;12.81;51.37;102724.72;5037127;27;96814;-78
2021/10/24 08:02:36;;;;;;;;;;;;;;;12.93;50.66;102723.72;5035484;28;98757;-78
2021/10/24 08:05:04;;;;;;;;;;;;;;;13.12;50.17;102718.16;5040517;27;100596;-79
2021/10/24 08:07:30;;;;;;;;;;;;;;;12.80;51.04;102719.47;5041754;27;98364;-78
2021/10/24 08:09:57;;;;;;;;;;;;;;;12.74;50.86;102715.97;5039643;27;97097;-82
2021/10/24 08:12:24;;;;;;;;;;;;;;;12.96;50.58;102721.88;5031778;27;97555;-81
2021/10/24 08:14:52;;;;;;;;;;;;;;;13.25;49.67;102720.63;5031284;27;98075;-80
2021/10/24 08:17:28;;;;;;;;;;;;;;;13.13;49.23;102724.31;5023380;28;100952;-80
2021/10/24 08:19:54;;;;;;;;;;;;;;;13.26;49.25;102717.91;5025387;27;97520;-80
2021/10/24 08:22:21;;;;;;;;;;;;;;;13.56;48.69;102712.13;5028313;27;97535;-81
2021/10/24 08:24:47;;;;;;;;;;;;;;;13.53;48.84;102708.63;5033735;22;98652;-82
2021/10/24 08:27:14;;;;;;;;;;;;;;;13.70;48.83;102711.88;4979826;28;99348;-80
2021/10/24 08:29:40;;;;;;;;;;;;;;;13.68;48.14;102716.34;4975699;28;97735;-77
2021/10/24 08:32:10;;;;;;;;;;;;;;;13.92;47.60;102709.72;4974405;28;97623;-79
2021/10/24 08:34:37;;;;;;;;;;;;;;;13.88;48.00;102706.25;4989783;28;99647;-82
2021/10/24 08:39:52;;;;;;;;;;;;;;;13.70;47.95;102701.25;4990794;28;97013;-78
2021/10/24 08:42:19;;;;;;;;;;;;;;;13.37;48.75;102702.72;4989579;28;98078;-80
2021/10/24 08:44:45;;;;;;;;;;;;;;;13.73;48.24;102700.31;4985060;28;98236;-79
2021/10/24 08:47:18;;;;;;;;;;;;;;;14.01;47.67;102700.69;4987952;28;97784;-78
2021/10/24 08:49:44;;;;;;;;;;;;;;;14.53;46.51;102698.78;4978246;28;96802;-78
2021/10/24 08:52:12;;;;;;;;;;;;;;;14.44;47.20;102701.63;4974871;28;96852;-80
2021/10/24 08:54:42;;;;;;;;;;;;;;;14.72;46.40;102700.13;4976255;28;99033;-81
2021/10/24 08:57:09;;;;;;;;;;;;;;;14.86;46.53;102694.50;4975577;28;101569;-80
2021/10/24 08:59:35;;;;;;;;;;;;;;;14.97;45.77;102694.25;4984055;28;98059;-80
2021/10/24 09:02:03;;;;;;;;;;;;;;;14.74;46.15;102695.66;4983087;28;96953;-80
2021/10/24 09:04:31;;;;;;;;;;;;;;;14.84;45.70;102695.44;4979582;28;99879;-77
2021/10/24 09:06:59;;;;;;;;;;;;;;;14.92;46.13;102696.16;4992567;28;98042;-78
2021/10/24 09:09:26;;;;;;;;;;;;;;;14.57;46.37;102687.16;4998804;28;96382;-78
2021/10/24 09:11:54;;;;;;;;;;;;;;;14.92;45.37;102690.84;4995977;28;98059;-78
2021/10/24 09:14:36;;;;;;;;;;;;;;;14.92;45.68;102682.84;4988826;28;100866;-79
2021/10/24 09:17:03;;;;;;;;;;;;;;;15.29;44.50;102683.75;4990409;28;97806;-79
2021/10/24 09:19:34;;;;;;;;;;;;;;;14.92;45.26;102686.38;4990299;28;96907;-78
2021/10/24 09:22:11;;;;;;;;;;;;;;;14.99;44.50;102684.47;4974330;28;96988;-78
2021/10/24 09:24:37;;;;;;;;;;;;;;;14.95;44.65;102677.47;4972202;28;101410;-77
2021/10/24 09:27:14;;;;;;;;;;;;;;;15.27;44.00;102680.25;4974911;28;99408;-79
2021/10/24 09:29:48;;;;;;;;;;;;;;;15.07;44.40;102672.72;4977767;28;96901;-80
2021/10/24 09:32:14;;;;;;;;;;;;;;;15.07;44.66;102671.84;4973691;28;97675;-80
2021/10/24 09:34:42;;;;;;;;;;;;;;;15.49;43.44;102665.44;4974216;28;98918;-80
2021/10/24 09:37:09;;;;;;;;;;;;;;;15.24;44.04;102677.63;4978593;28;99113;-80
2021/10/24 09:39:37;;;;;;;;;;;;;;;15.32;44.54;102670.34;4982215;28;96871;-80
2021/10/24 09:42:10;;;;;;;;;;;;;;;15.90;43.37;102666.19;4979556;28;98866;-81
2021/10/24 09:44:58;;;;;;;;;;;;;;;15.78;43.34;102669.19;4979717;28;101462;-80
2021/10/24 09:47:25;;;;;;;;;;;;;;;16.39;42.08;102664.81;4979615;28;99587;-79
2021/10/24 09:49:53;;;;;;;;;;;;;;;16.32;42.49;102669.44;4981800;28;97040;-82
2021/10/24 09:52:27;;;;;;;;;;;;;;;15.60;43.11;102667.00;4988830;28;98342;-80
2021/10/24 09:54:53;;;;;;;;;;;;;;;16.42;41.83;102664.69;4971655;28;98668;-79
2021/10/24 09:57:20;;;;;;;;;;;;;;;16.80;41.45;102667.16;4976699;28;101579;-79
2021/10/24 09:59:49;;;;;;;;;;;;;;;16.73;42.01;102665.59;4976097;28;97556;-78
2021/10/24 10:02:16;;;;;;;;;;;;;;;16.13;42.29;102663.78;4978351;28;97739;-79
2021/10/24 10:04:42;;;;;;;;;;;;;;;16.15;42.52;102667.25;4979300;28;98153;-78
2021/10/24 10:07:11;;;;;;;;;;;;;;;16.15;41.73;102667.25;4981904;28;100415;-81
2021/10/24 10:09:37;;;;;;;;;;;;;;;15.97;42.13;102657.09;4984081;28;97292;-79
2021/10/24 10:12:07;;;;;;;;;;;;;;;16.10;41.91;102670.97;4985912;28;97038;-81
2021/10/24 10:14:34;;;;;;;;;;;;;;;16.18;41.81;102645.84;4978149;28;97820;-80
2021/10/24 10:17:03;;;;;;;;;;;;;;;16.41;41.97;102647.81;4978799;28;100615;-79
2021/10/24 10:19:30;;;;;;;;;;;;;;;16.49;41.43;102645.78;4977962;28;97047;-80
2021/10/24 10:21:57;;;;;;;;;;;;;;;15.96;42.13;102644.69;4976149;28;97261;-79
2021/10/24 10:24:44;;;;;;;;;;;;;;;15.57;42.99;102653.75;4979368;28;99224;-81
2021/10/24 10:27:26;;;;;;;;;;;;;;;15.50;43.11;102640.56;4986863;28;99096;-79
2021/10/24 10:29:53;;;;;;;;;;;;;;;15.68;42.55;102647.25;4990595;28;98478;-79
2021/10/24 10:32:22;;;;;;;;;;;;;;;15.54;42.76;102636.94;4984164;28;98480;-79
2021/10/24 10:35:04;;;;;;;;;;;;;;;15.59;42.78;102634.16;4976476;28;100469;-79
2021/10/24 10:37:50;;;;;;;;;;;;;;;15.97;41.87;102635.78;4976135;28;101252;-80
2021/10/24 10:40:19;;;;;;;;;;;;;;;15.96;42.40;102634.03;4976558;28;97199;-79
2021/10/24 10:43:03;;;;;;;;;;;;;;;16.06;42.26;102635.53;4978074;28;96952;-80
2021/10/24 10:45:51;;;;;;;;;;;;;;;16.20;41.81;102641.34;4976013;28;100583;-79
2021/10/24 10:48:33;;;;;;;;;;;;;;;15.75;42.37;102634.63;4974338;28;101194;-79
2021/10/24 10:51:00;;;;;;;;;;;;;;;16.29;41.75;102633.06;4976318;28;97753;-79
2021/10/24 10:53:45;;;;;;;;;;;;;;;16.31;41.56;102620.56;4972945;28;97414;-78
2021/10/24 10:56:29;;;;;;;;;;;;;;;16.10;41.73;102622.97;4983392;28;99766;-79
2021/10/24 10:58:58;;;;;;;;;;;;;;;16.09;42.11;102619.41;4984548;28;98259;-78
2021/10/24 11:01:35;;;;;;;;;;;;;;;15.67;42.12;102615.31;4982885;28;96967;-79
2021/10/24 11:04:17;;;;;;;;;;;;;;;15.98;41.41;102610.88;4985655;28;96897;-79
2021/10/24 11:06:51;;;;;;;;;;;;;;;15.81;42.02;102606.03;4979139;28;99368;-77
2021/10/24 11:09:35;;;;;;;;;;;;;;;16.03;41.45;102589.38;4975500;28;99895;-80
2021/10/24 11:12:01;;;;;;;;;;;;;;;15.83;41.16;102593.50;4964468;28;98690;-79
2021/10/24 11:14:41;;;;;;;;;;;;;;;15.81;41.03;102587.38;4973690;28;96911;-79
2021/10/24 11:17:08;;;;;;;;;;;;;;;15.67;41.28;102583.31;4973555;28;98604;-79
2021/10/24 11:19:49;;;;;;;;;;;;;;;15.88;40.55;102574.72;4973362;28;99000;-79
2021/10/24 11:22:17;;;;;;;;;;;;;;;15.88;40.21;102582.72;4972091;28;97701;-79
2021/10/24 11:24:45;;;;;;;;;;;;;;;15.82;40.32;102577.53;4974029;28;96862;-80
2021/10/24 11:27:14;;;;;;;;;;;;;;;16.14;40.00;102564.19;4973751;28;100595;-78
2021/10/24 11:29:48;;;;;;;;;;;;;;;16.06;39.97;102560.84;4972608;28;99133;-79
2021/10/24 11:32:15;;;;;;;;;;;;;;;16.01;39.47;102557.47;4971292;28;98995;-79
2021/10/24 11:34:41;;;;;;;;;;;;;;;15.58;39.90;102554.25;4974097;28;96941;-80
2021/10/24 11:37:09;;;;;;;;;;;;;;;15.35;40.42;102553.06;4970627;28;97687;-80
2021/10/24 11:39:35;;;;;;;;;;;;;;;15.84;39.64;102547.28;4973161;28;101081;-80
2021/10/24 11:42:09;;;;;;;;;;;;;;;16.13;39.52;102557.09;4972570;28;97116;-80
2021/10/24 11:44:35;;;;;;;;;;;;;;;16.11;39.45;102542.91;4974562;28;96902;-80
2021/10/24 11:47:10;;;;;;;;;;;;;;;16.05;39.53;102540.44;4970970;28;99119;-79
2021/10/24 11:49:43;;;;;;;;;;;;;;;16.26;38.70;102538.91;4974673;28;100458;-79
2021/10/24 11:52:20;;;;;;;;;;;;;;;16.52;38.58;102538.09;4970557;28;97362;-78
2021/10/24 11:54:58;;;;;;;;;;;;;;;16.19;38.96;102534.69;4975178;28;97094;-79
2021/10/24 11:57:35;;;;;;;;;;;;;;;15.95;39.56;102533.63;4971848;28;101311;-79
2021/10/24 12:00:18;;;;;;;;;;;;;;;16.07;39.02;102535.06;4954729;28;98979;-79
2021/10/24 12:02:56;;;;;;;;;;;;;;;16.35;38.47;102534.16;4972357;28;98954;-78
2021/10/24 12:05:24;;;;;;;;;;;;;;;16.19;38.80;102530.25;4974285;28;97976;-79
2021/10/24 12:07:52;;;;;;;;;;;;;;;16.53;38.38;102529.19;4974738;28;101153;-79
2021/10/24 12:10:19;;;;;;;;;;;;;;;16.65;38.35;102516.34;4971140;28;98055;-79
2021/10/24 12:12:46;;;;;;;;;;;;;;;16.80;38.02;102512.31;4971546;28;96983;-79
2021/10/24 12:15:15;;;;;;;;;;;;;;;16.65;38.24;102515.47;4969791;28;97437;-79
2021/10/24 12:17:42;;;;;;;;;;;;;;;16.80;37.77;102517.63;4975061;28;98134;-79
2021/10/24 12:20:14;;;;;;;;;;;;;;;16.53;36.90;102514.03;4973273;28;98969;-79
2021/10/24 12:22:42;;;;;;;;;;;;;;;16.43;36.45;102501.91;4969831;28;97593;-80
2021/10/24 12:25:11;;;;;;;;;;;;;;;16.80;36.34;102501.63;4973106;28;97532;-79
2021/10/24 12:27:40;;;;;;;;;;;;;;;16.79;36.68;102499.00;4974605;28;99074;-79
2021/10/24 12:30:08;;;;;;;;;;;;;;;16.94;36.22;102482.44;4975841;28;101945;-81
2021/10/24 12:32:35;;;;;;;;;;;;;;;16.93;36.22;102484.25;4976990;28;97318;-78
2021/10/24 12:35:03;;;;;;;;;;;;;;;16.40;37.11;102485.13;4977186;28;97130;-80
2021/10/24 12:37:31;;;;;;;;;;;;;;;16.81;36.67;102476.66;4977736;28;99893;-78
2021/10/24 12:40:16;;;;;;;;;;;;;;;16.63;36.63;102474.59;4978607;28;100096;-79
2021/10/24 12:42:43;;;;;;;;;;;;;;;17.00;36.34;102467.06;4980439;28;97538;-78
2021/10/24 12:45:15;;;;;;;;;;;;;;;16.90;36.48;102468.31;4984678;28;97570;-77
2021/10/24 12:47:56;;;;;;;;;;;;;;;16.82;36.42;102465.03;4987913;28;97870;-79
2021/10/24 12:50:30;;;;;;;;;;;;;;;17.06;36.25;102460.66;4993127;28;96936;-78